createdAt,value
2023-08-08T00:01:44.279Z,3.97
2023-08-08T00:04:18.881Z,3.67
2023-08-08T00:06:45.763Z,3.72
2023-08-08T00:09:18.919Z,3.65
2023-08-08T00:11:52.823Z,3.97
2023-08-08T00:14:25.808Z,4.07
2023-08-08T00:16:58.858Z,4.65
2023-08-08T00:19:25.911Z,4.82
2023-08-08T00:21:59.121Z,4.45
2023-08-08T00:24:26.293Z,4.85
2023-08-08T00:26:59.891Z,5.13
2023-08-08T00:29:26.795Z,5.00
2023-08-08T00:32:06.955Z,4.97
2023-08-08T00:34:34.097Z,4.82
2023-08-08T00:37:07.916Z,5.03
2023-08-08T00:39:34.812Z,4.90
2023-08-08T00:42:08.955Z,5.00
2023-08-08T00:44:35.892Z,4.28
2023-08-08T00:47:08.918Z,4.95
2023-08-08T00:49:36.338Z,4.63
2023-08-08T00:52:09.910Z,4.72
2023-08-08T00:54:42.987Z,4.28
2023-08-08T00:57:09.862Z,4.57
2023-08-08T00:59:43.920Z,4.03
2023-08-08T01:02:10.945Z,4.75
2023-08-08T01:04:44.943Z,4.43
2023-08-08T01:07:18.785Z,4.30
2023-08-08T01:10:17.062Z,3.90
2023-08-08T01:12:48.264Z,4.43
2023-08-08T01:15:22.913Z,4.35
2023-08-08T01:17:50.049Z,4.43
2023-08-08T01:20:24.903Z,4.05
2023-08-08T01:23:36.923Z,3.83
2023-08-08T01:26:10.923Z,4.47
2023-08-08T01:28:37.845Z,4.35
2023-08-08T01:31:11.000Z,4.28
2023-08-08T01:33:45.036Z,4.35
2023-08-08T01:36:36.888Z,4.25
2023-08-08T01:39:13.844Z,4.50
2023-08-08T01:41:48.980Z,4.15
2023-08-08T01:44:23.951Z,4.15
2023-08-08T01:46:51.297Z,4.22
2023-08-08T01:49:24.973Z,4.55
2023-08-08T01:51:53.610Z,4.82
2023-08-08T01:54:27.917Z,4.60
2023-08-08T01:56:54.868Z,5.05
2023-08-08T01:59:27.929Z,4.85
2023-08-08T02:01:54.986Z,5.32
2023-08-08T02:04:28.964Z,5.32
2023-08-08T02:06:55.828Z,4.80
2023-08-08T02:09:28.916Z,5.35
2023-08-08T02:11:56.414Z,5.88
2023-08-08T02:14:29.949Z,5.10
2023-08-08T02:17:02.974Z,5.88
2023-08-08T02:19:36.921Z,5.85
2023-08-08T02:22:03.916Z,5.40
2023-08-08T02:24:36.926Z,5.80
2023-08-08T02:27:10.971Z,5.53
2023-08-08T02:29:37.806Z,6.15
2023-08-08T02:32:11.921Z,6.38
2023-08-08T02:34:45.728Z,5.68
2023-08-08T02:37:18.903Z,6.70
2023-08-08T02:39:46.078Z,6.22
2023-08-08T02:42:19.931Z,6.25
2023-08-08T02:44:46.782Z,7.00
2023-08-08T02:47:20.000Z,6.82
2023-08-08T02:49:46.884Z,6.65
2023-08-08T02:52:19.940Z,7.03
2023-08-08T02:54:46.811Z,7.18
2023-08-08T02:57:13.647Z,6.93
2023-08-08T02:59:46.922Z,7.10
2023-08-08T03:02:19.971Z,6.68
2023-08-08T03:04:47.051Z,6.57
2023-08-08T03:07:19.975Z,6.28
2023-08-08T03:09:52.926Z,6.53
2023-08-08T03:12:25.928Z,6.38
2023-08-08T03:14:58.930Z,6.93
2023-08-08T03:17:26.153Z,6.97
2023-08-08T03:20:00.123Z,6.47
2023-08-08T03:22:27.231Z,7.20
2023-08-08T03:25:00.936Z,6.70
2023-08-08T03:27:27.800Z,7.60
2023-08-08T03:30:01.062Z,8.00
2023-08-08T03:32:35.934Z,7.72
2023-08-08T03:35:10.012Z,7.18
2023-08-08T03:37:37.256Z,7.32
2023-08-08T03:40:11.090Z,7.50
2023-08-08T03:42:38.054Z,7.85
2023-08-08T03:45:12.051Z,7.32
2023-08-08T03:47:38.975Z,7.88
2023-08-08T03:50:14.014Z,7.40
2023-08-08T03:52:47.994Z,8.05
2023-08-08T03:55:14.934Z,7.75
2023-08-08T03:57:48.009Z,8.20
2023-08-08T04:00:15.067Z,7.82
2023-08-08T04:02:48.059Z,7.40
2023-08-08T04:05:14.973Z,7.45
2023-08-08T04:07:49.036Z,8.00
2023-08-08T04:10:16.016Z,8.07
2023-08-08T04:12:49.995Z,7.95
2023-08-08T04:15:16.912Z,6.97
2023-08-08T04:17:50.068Z,7.28
2023-08-08T04:20:17.189Z,7.70
2023-08-08T04:22:50.014Z,7.20
2023-08-08T04:25:17.069Z,7.15
2023-08-08T04:27:51.124Z,7.60
2023-08-08T04:30:17.944Z,6.82
2023-08-08T04:32:58.007Z,7.35
2023-08-08T04:35:38.118Z,7.45
2023-08-08T04:38:05.405Z,7.35
2023-08-08T04:40:39.535Z,6.78
2023-08-08T04:43:13.052Z,8.27
2023-08-08T04:45:46.061Z,7.47
2023-08-08T04:48:18.982Z,7.03
2023-08-08T04:50:55.052Z,6.60
2023-08-08T04:53:29.034Z,6.95
2023-08-08T04:55:55.899Z,6.88
2023-08-08T04:58:29.012Z,7.05
2023-08-08T05:01:03.009Z,6.65
2023-08-08T05:03:30.033Z,6.03
2023-08-08T05:06:03.008Z,7.15
2023-08-08T05:08:36.034Z,6.80
2023-08-08T05:11:02.861Z,6.55
2023-08-08T05:13:36.011Z,7.05
2023-08-08T05:16:09.040Z,6.32
2023-08-08T05:18:42.148Z,6.60
2023-08-08T05:21:14.985Z,7.03
2023-08-08T05:23:41.918Z,5.93
2023-08-08T05:26:15.029Z,6.03
2023-08-08T05:28:41.953Z,6.60
2023-08-08T05:31:15.144Z,6.38
2023-08-08T05:33:48.172Z,6.47
2023-08-08T05:36:21.031Z,6.40
2023-08-08T05:38:48.247Z,6.80
2023-08-08T05:41:22.162Z,7.00
2023-08-08T05:43:56.105Z,6.30
2023-08-08T05:46:23.212Z,6.35
2023-08-08T05:48:57.072Z,6.88
2023-08-08T05:51:30.442Z,5.95
2023-08-08T05:53:58.922Z,6.13
2023-08-08T05:56:42.043Z,6.38
2023-08-08T05:59:15.050Z,5.82
2023-08-08T06:01:42.189Z,6.25
2023-08-08T06:04:16.059Z,5.93
2023-08-08T06:06:43.016Z,6.55
2023-08-08T06:09:20.054Z,6.05
2023-08-08T06:11:46.857Z,5.60
2023-08-08T06:14:14.083Z,5.70
2023-08-08T06:16:48.075Z,5.95
2023-08-08T06:19:23.099Z,6.05
2023-08-08T06:21:50.416Z,6.35
2023-08-08T06:24:17.258Z,6.20
2023-08-08T06:26:51.144Z,5.93
2023-08-08T06:29:18.332Z,5.45
2023-08-08T06:31:52.191Z,6.05
2023-08-08T06:34:25.396Z,5.70
2023-08-08T06:36:59.004Z,6.00
2023-08-08T06:39:26.324Z,5.72
2023-08-08T06:42:00.165Z,5.00
2023-08-08T06:44:27.276Z,4.63
2023-08-08T06:47:07.063Z,4.72
2023-08-08T06:49:34.024Z,5.32
2023-08-08T06:52:07.208Z,4.38
2023-08-08T06:54:34.734Z,4.72
2023-08-08T06:57:10.034Z,4.47
2023-08-08T06:59:36.930Z,4.28
2023-08-08T07:02:10.393Z,3.65
2023-08-08T07:04:37.468Z,4.50
2023-08-08T07:07:11.098Z,3.85
2023-08-08T07:09:45.108Z,4.25
2023-08-08T07:12:12.329Z,3.40
2023-08-08T07:14:46.142Z,2.60
2023-08-08T07:17:12.983Z,3.20
2023-08-08T07:19:47.203Z,3.22
2023-08-08T07:22:14.089Z,3.67
2023-08-08T07:24:47.181Z,3.53
2023-08-08T07:27:13.985Z,8.82
2023-08-08T07:29:47.126Z,2.90
2023-08-08T07:32:34.128Z,2.58
2023-08-08T07:35:10.082Z,2.60
2023-08-08T07:37:44.085Z,2.50
2023-08-08T07:40:19.194Z,2.60
2023-08-08T07:42:59.143Z,2.30
2023-08-08T07:45:36.466Z,2.15
2023-08-08T07:48:03.608Z,2.30
2023-08-08T07:50:37.162Z,2.15
2023-08-08T07:53:10.126Z,2.25
2023-08-08T07:55:36.864Z,2.25
2023-08-08T07:58:10.098Z,1.98
2023-08-08T08:00:36.970Z,1.90
2023-08-08T08:03:11.100Z,1.98
2023-08-08T08:05:38.873Z,2.13
2023-08-08T08:08:12.059Z,2.00
2023-08-08T08:10:38.843Z,1.85
2023-08-08T08:13:12.159Z,1.65
2023-08-08T08:15:39.668Z,1.60
2023-08-08T08:18:13.145Z,1.80
2023-08-08T08:20:47.113Z,2.03
2023-08-08T08:23:14.458Z,2.10
2023-08-08T08:25:48.116Z,1.88
2023-08-08T08:28:21.185Z,1.73
2023-08-08T08:30:55.177Z,1.60
2023-08-08T08:33:28.240Z,2.03
2023-08-08T08:36:01.196Z,8.40
2023-08-08T08:38:28.078Z,2.25
2023-08-08T08:41:11.146Z,1.50
2023-08-08T08:43:52.142Z,1.60
2023-08-08T08:46:29.151Z,1.40
2023-08-08T08:48:59.360Z,2.10
2023-08-08T08:51:33.180Z,1.30
2023-08-08T08:54:00.394Z,1.40
2023-08-08T08:56:35.125Z,1.50
2023-08-08T08:59:01.972Z,1.65
2023-08-08T09:01:36.196Z,1.40
2023-08-08T09:04:04.582Z,1.33
2023-08-08T09:06:32.334Z,1.45
2023-08-08T09:09:16.522Z,1.30
2023-08-08T09:11:46.709Z,1.60
2023-08-08T09:14:29.271Z,1.40
2023-08-08T09:16:57.304Z,1.30
2023-08-08T09:19:31.087Z,1.10
2023-08-08T09:21:58.211Z,1.10
2023-08-08T09:24:32.294Z,1.30
2023-08-08T09:26:59.131Z,1.58
2023-08-08T09:29:32.275Z,1.70
2023-08-08T09:32:06.189Z,1.08
2023-08-08T09:34:40.170Z,1.27
2023-08-08T09:37:07.866Z,1.35
2023-08-08T09:39:41.176Z,1.20
2023-08-08T09:42:16.208Z,1.35
2023-08-08T09:44:44.188Z,1.40
2023-08-08T09:47:23.071Z,1.15
2023-08-08T09:49:57.154Z,1.02
2023-08-08T09:52:30.204Z,1.10
2023-08-08T09:54:57.428Z,1.02
2023-08-08T09:57:24.960Z,1.20
2023-08-08T10:00:00.279Z,1.25
2023-08-08T10:02:34.270Z,1.50
2023-08-08T10:05:09.172Z,1.40
2023-08-08T10:07:43.141Z,1.10
2023-08-08T10:10:11.266Z,1.40
2023-08-08T10:12:49.234Z,1.10
2023-08-08T10:15:16.377Z,1.67
2023-08-08T10:17:44.168Z,1.30
2023-08-08T10:20:25.230Z,1.40
2023-08-08T10:22:57.907Z,1.40
2023-08-08T10:25:35.229Z,1.30
2023-08-08T10:28:25.433Z,1.10
2023-08-08T10:31:05.220Z,1.38
2023-08-08T10:33:50.556Z,1.40
2023-08-08T10:36:24.195Z,1.48
2023-08-08T10:39:03.208Z,1.20
2023-08-08T10:42:11.508Z,1.30
2023-08-08T10:47:48.300Z,1.30
2023-08-08T10:50:27.076Z,1.10
2023-08-08T10:55:54.246Z,1.00
2023-08-08T10:58:36.668Z,0.90
2023-08-08T11:01:14.562Z,1.10
2023-08-08T11:03:51.877Z,1.20
2023-08-08T11:06:29.976Z,1.05
2023-08-08T11:09:11.131Z,0.93
2023-08-08T11:11:49.236Z,1.38
2023-08-08T11:14:25.285Z,1.00
2023-08-08T11:17:06.798Z,1.05
2023-08-08T11:19:45.169Z,1.27
2023-08-08T11:22:19.564Z,0.88
2023-08-08T11:24:46.696Z,1.30
2023-08-08T11:29:53.808Z,1.33
2023-08-08T11:32:28.654Z,1.27
2023-08-08T11:35:08.316Z,1.27
2023-08-08T11:37:35.864Z,1.25
2023-08-08T11:40:11.943Z,1.15
2023-08-08T11:42:46.578Z,1.15
2023-08-08T11:45:22.352Z,1.20
2023-08-08T11:47:58.995Z,1.60
2023-08-08T11:50:37.330Z,1.20
2023-08-08T11:53:08.750Z,1.20
2023-08-08T11:55:45.664Z,1.73
2023-08-08T11:58:16.229Z,1.30
2023-08-08T12:00:58.943Z,1.23
2023-08-08T12:03:34.167Z,1.20
2023-08-08T12:06:23.334Z,1.30
2023-08-08T12:08:52.853Z,1.33
2023-08-08T12:11:33.418Z,1.20
2023-08-08T12:14:05.918Z,1.27
2023-08-08T12:16:51.554Z,0.98
2023-08-08T12:19:22.842Z,1.15
2023-08-08T12:22:02.497Z,1.30
2023-08-08T12:24:29.639Z,1.10
2023-08-08T12:27:03.371Z,1.20
2023-08-08T12:29:40.310Z,1.13
2023-08-08T12:32:16.300Z,0.85
2023-08-08T12:34:43.412Z,1.05
2023-08-08T12:37:18.323Z,1.30
2023-08-08T12:39:54.547Z,1.00
2023-08-08T12:42:38.360Z,1.05
2023-08-08T12:45:15.430Z,1.10
2023-08-08T12:47:55.825Z,1.00
2023-08-08T12:50:29.396Z,0.90
2023-08-08T12:53:03.316Z,1.10
2023-08-08T12:55:37.439Z,1.08
2023-08-08T12:58:19.432Z,0.82
2023-08-08T13:00:54.590Z,1.17
2023-08-08T13:03:26.614Z,1.60
2023-08-08T13:06:09.492Z,1.10
2023-08-08T13:08:39.462Z,1.17
2023-08-08T13:11:16.410Z,0.88
2023-08-08T13:13:46.251Z,1.20
2023-08-08T13:16:19.426Z,0.90
2023-08-08T13:18:52.007Z,1.10
2023-08-08T13:24:14.404Z,1.05
2023-08-08T13:26:51.476Z,1.10
2023-08-08T13:29:18.627Z,1.20
2023-08-08T13:31:54.870Z,0.90
2023-08-08T13:34:22.235Z,0.98
2023-08-08T13:36:52.512Z,1.10
2023-08-08T13:39:26.354Z,1.20
2023-08-08T13:42:13.366Z,0.80
2023-08-08T13:44:40.694Z,1.08
2023-08-08T13:47:14.295Z,1.13
2023-08-08T13:52:36.518Z,1.00
2023-08-08T13:55:04.298Z,0.95
2023-08-08T13:57:31.756Z,1.10
2023-08-08T14:00:08.356Z,0.90
2023-08-08T14:02:37.802Z,1.00
2023-08-08T14:05:14.521Z,1.20
2023-08-08T14:07:41.760Z,0.88
2023-08-08T14:10:20.483Z,1.10
2023-08-08T14:12:47.830Z,1.00
2023-08-08T14:15:25.578Z,1.00
2023-08-08T14:17:59.086Z,1.10
2023-08-08T14:20:42.578Z,0.85
2023-08-08T14:23:09.738Z,1.58
2023-08-08T14:25:45.589Z,1.10
2023-08-08T14:28:14.789Z,1.10
2023-08-08T14:30:54.639Z,1.10
2023-08-08T14:33:28.426Z,1.10
2023-08-08T14:35:55.573Z,0.93
2023-08-08T14:38:33.490Z,1.10
2023-08-08T14:41:23.512Z,0.90
2023-08-08T14:43:58.606Z,1.48
2023-08-08T14:46:32.341Z,4.82
2023-08-08T14:49:09.622Z,0.90
2023-08-08T14:51:39.709Z,1.00
2023-08-08T14:54:14.455Z,0.95
2023-08-08T14:56:41.829Z,1.08
2023-08-08T14:59:15.445Z,1.20
2023-08-08T15:01:42.982Z,1.30
2023-08-08T15:04:19.627Z,0.90
2023-08-08T15:06:55.194Z,1.05
2023-08-08T15:09:28.540Z,1.23
2023-08-08T15:11:55.993Z,0.90
2023-08-08T15:14:34.495Z,1.20
2023-08-08T15:17:03.799Z,0.88
2023-08-08T15:19:39.510Z,1.10
2023-08-08T15:22:07.990Z,1.10
2023-08-08T15:24:43.432Z,1.00
2023-08-08T15:27:16.211Z,1.25
2023-08-08T15:30:14.734Z,1.20
2023-08-08T15:32:42.167Z,1.02
2023-08-08T15:35:16.572Z,0.90
2023-08-08T15:37:53.323Z,1.20
2023-08-08T15:40:34.159Z,1.20
2023-08-08T15:43:17.808Z,1.05
2023-08-08T15:45:51.616Z,1.00
2023-08-08T15:48:31.642Z,1.08
2023-08-08T15:51:10.686Z,1.00
2023-08-08T15:53:38.249Z,1.30
2023-08-08T15:56:12.389Z,1.23
2023-08-08T15:58:40.729Z,1.00
2023-08-08T16:01:10.833Z,1.15
2023-08-08T16:03:44.535Z,1.20
2023-08-08T16:06:11.736Z,1.25
2023-08-08T16:08:50.420Z,1.60
2023-08-08T16:11:19.662Z,1.15
2023-08-08T16:13:54.551Z,1.30
2023-08-08T16:16:21.739Z,1.13
2023-08-08T16:19:03.421Z,1.30
2023-08-08T16:21:30.888Z,1.25
2023-08-08T16:24:06.222Z,1.50
2023-08-08T16:26:42.481Z,1.33
2023-08-08T16:29:18.428Z,1.40
2023-08-08T16:31:53.662Z,1.20
2023-08-08T16:34:30.081Z,1.60
2023-08-08T16:37:05.984Z,1.30
2023-08-08T16:39:39.194Z,1.50
2023-08-08T16:42:16.574Z,1.25
2023-08-08T16:44:43.785Z,1.45
2023-08-08T16:47:17.440Z,1.40
2023-08-08T16:49:51.855Z,1.50
2023-08-08T16:52:29.391Z,1.60
2023-08-08T16:54:56.915Z,1.73
2023-08-08T16:57:36.456Z,1.52
2023-08-08T17:00:05.630Z,1.52
2023-08-08T17:02:43.069Z,1.50
2023-08-08T17:05:11.368Z,1.50
2023-08-08T17:07:46.744Z,1.60
2023-08-08T17:10:16.691Z,1.40
2023-08-08T17:12:50.578Z,1.27
2023-08-08T17:15:25.006Z,1.58
2023-08-08T17:18:08.603Z,1.60
2023-08-08T17:20:41.070Z,1.70
2023-08-08T17:23:17.589Z,1.58
2023-08-08T17:25:51.648Z,1.73
2023-08-08T17:28:28.542Z,1.80
2023-08-08T17:31:03.132Z,1.60
2023-08-08T17:33:33.696Z,2.25
2023-08-08T17:36:07.615Z,1.63
2023-08-08T17:38:34.799Z,1.50
2023-08-08T17:41:11.466Z,1.77
2023-08-08T17:43:47.768Z,1.70
2023-08-08T17:46:25.553Z,1.50
2023-08-08T17:48:59.637Z,1.80
2023-08-08T17:51:36.444Z,1.50
2023-08-08T17:54:04.020Z,1.73
2023-08-08T17:56:38.673Z,1.58
2023-08-08T17:59:08.151Z,1.60
2023-08-08T18:01:41.947Z,1.75
2023-08-08T18:04:16.007Z,1.90
2023-08-08T18:06:52.574Z,1.73
2023-08-08T18:09:26.584Z,1.88
2023-08-08T18:11:57.094Z,2.10
2023-08-08T18:14:31.587Z,2.35
2023-08-08T18:17:08.688Z,2.08
2023-08-08T18:19:45.543Z,1.90
2023-08-08T18:22:19.637Z,2.15
2023-08-08T18:24:53.922Z,2.25
2023-08-08T18:27:24.764Z,2.03
2023-08-08T18:29:58.647Z,2.40
2023-08-08T18:32:29.165Z,2.20
2023-08-08T18:35:03.665Z,2.00
2023-08-08T18:37:31.322Z,2.15
2023-08-08T18:40:06.650Z,1.80
2023-08-08T18:42:40.807Z,1.92
2023-08-08T18:45:16.208Z,2.00
2023-08-08T18:47:46.579Z,2.10
2023-08-08T18:50:28.722Z,1.85
2023-08-08T18:53:05.921Z,2.03
2023-08-08T18:55:40.635Z,1.80
2023-08-08T18:58:11.315Z,1.92
2023-08-08T19:00:50.184Z,1.88
2023-08-08T19:03:20.004Z,1.90
2023-08-08T19:06:00.637Z,2.08
2023-08-08T19:08:28.250Z,2.10
2023-08-08T19:11:04.592Z,2.10
2023-08-08T19:13:41.504Z,2.40
2023-08-08T19:16:09.443Z,2.47
2023-08-08T19:18:45.564Z,2.35
2023-08-08T19:21:12.973Z,2.70
2023-08-08T19:23:55.545Z,2.28
2023-08-08T19:26:23.017Z,1.88
2023-08-08T19:28:59.620Z,2.45
2023-08-08T19:31:26.878Z,2.17
2023-08-08T19:34:19.712Z,2.38
2023-08-08T19:36:53.816Z,2.78
2023-08-08T19:42:15.678Z,2.25
2023-08-08T19:44:49.582Z,2.10
2023-08-08T19:47:20.218Z,2.25
2023-08-08T19:49:54.838Z,2.55
2023-08-08T19:52:31.749Z,2.15
2023-08-08T19:54:59.073Z,2.58
2023-08-08T19:57:35.666Z,2.53
2023-08-08T20:00:07.641Z,2.20
2023-08-08T20:02:46.157Z,2.17
2023-08-08T20:05:28.867Z,2.08
2023-08-08T20:07:56.589Z,2.33
2023-08-08T20:10:33.700Z,2.47
2023-08-08T20:13:02.738Z,2.60
2023-08-08T20:15:38.790Z,2.88
2023-08-08T20:18:15.643Z,2.20
2023-08-08T20:20:43.161Z,2.58
2023-08-08T20:23:17.628Z,2.30
2023-08-08T20:25:45.469Z,3.25
2023-08-08T20:28:24.694Z,3.80
2023-08-08T20:30:55.323Z,2.70
2023-08-08T20:33:32.645Z,3.35
2023-08-08T20:36:02.322Z,2.97
2023-08-08T20:38:38.618Z,2.60
2023-08-08T20:41:09.358Z,2.92
2023-08-08T20:43:55.217Z,2.80
2023-08-08T20:46:25.822Z,3.10
2023-08-08T20:49:01.720Z,3.03
2023-08-08T20:51:38.081Z,3.03
2023-08-08T20:54:14.761Z,2.70
2023-08-08T20:59:32.784Z,2.78
2023-08-08T21:02:06.717Z,2.90
2023-08-08T21:04:43.637Z,3.33
2023-08-08T21:07:16.067Z,3.28
2023-08-08T21:09:51.574Z,2.75
2023-08-08T21:12:25.644Z,2.58
2023-08-08T21:15:01.268Z,3.22
2023-08-08T21:17:31.254Z,2.80
2023-08-08T21:20:05.650Z,2.70
2023-08-08T21:22:44.606Z,2.83
2023-08-08T21:25:17.657Z,2.70
2023-08-08T21:28:00.287Z,2.63
2023-08-08T21:30:28.059Z,2.60
2023-08-08T21:33:04.807Z,2.75
2023-08-08T21:35:33.375Z,3.05
2023-08-08T21:38:07.706Z,2.53
2023-08-08T21:40:36.754Z,2.55
2023-08-08T21:43:23.619Z,3.03
2023-08-08T21:45:51.531Z,2.88
2023-08-08T21:48:25.767Z,2.92
2023-08-08T21:50:58.407Z,3.08
2023-08-08T21:53:32.858Z,2.92
2023-08-08T21:56:10.740Z,3.05
2023-08-08T21:58:45.650Z,3.08
2023-08-08T22:01:14.872Z,3.53
2023-08-08T22:03:51.802Z,3.75
2023-08-08T22:09:07.653Z,4.00
2023-08-08T22:11:41.752Z,3.72
2023-08-08T22:14:16.666Z,4.28
2023-08-08T22:16:44.046Z,3.78
2023-08-08T22:19:20.717Z,4.15
2023-08-08T22:21:57.709Z,4.43
2023-08-08T22:24:30.615Z,4.18
2023-08-08T22:27:07.703Z,4.40
2023-08-08T22:29:35.235Z,4.28
2023-08-08T22:32:09.767Z,4.03
2023-08-08T22:34:37.044Z,4.05
2023-08-08T22:37:10.971Z,4.22
2023-08-08T22:39:47.653Z,4.40
2023-08-08T22:42:21.755Z,4.40
2023-08-08T22:45:01.797Z,4.20
2023-08-08T22:47:35.702Z,4.30
2023-08-08T22:50:13.098Z,4.38
2023-08-08T22:52:43.217Z,4.82
2023-08-08T22:55:17.906Z,4.20
2023-08-08T22:57:48.174Z,4.10
2023-08-08T23:00:23.955Z,4.10
2023-08-08T23:02:51.521Z,3.92
2023-08-08T23:05:25.922Z,4.13
2023-08-08T23:07:53.255Z,3.72
2023-08-08T23:10:29.822Z,4.13
2023-08-08T23:12:57.294Z,4.03
2023-08-08T23:15:33.832Z,4.15
2023-08-08T23:18:04.134Z,3.85
2023-08-08T23:20:39.799Z,3.90
2023-08-08T23:23:07.447Z,3.70
2023-08-08T23:25:43.656Z,3.63
2023-08-08T23:28:11.348Z,3.75
2023-08-08T23:30:44.896Z,4.18
2023-08-08T23:33:18.883Z,3.38
2023-08-08T23:35:46.367Z,3.80
2023-08-08T23:38:20.717Z,3.67
2023-08-08T23:40:48.137Z,3.75
2023-08-08T23:43:31.726Z,3.50
2023-08-08T23:46:08.106Z,4.05
2023-08-08T23:48:46.698Z,3.97
2023-08-08T23:51:15.081Z,3.92
2023-08-08T23:53:49.733Z,3.63
2023-08-08T23:56:20.279Z,4.63
2023-08-08T23:58:54.745Z,4.35
